Callicoon Center, New York
Current Conditions -  °F | °C
As of 2:55 AM on Friday 19 Dec 2014 (Local Time) from KMSV Reporting Station
Overcast Overcast  
Wind Chill: 20°   Ceiling: 2000
Heat Index: 28°   Visibility: 10mi
Dew Point: 27°   Wind: 8mph
Humidity: 93%   Direction: 290°WNW
Pressure: 29.93"   Gusts: NA
Location:  41.84°N, 74.95°W
Report Text: KMSV 190755Z AUTO 29007KT 10SM BKN020 OVC027 M02/M03 A2993 RMK AO1
Loading
Personal Weather Stations






























Interactive Weather Map New forecast layout! Learn more

10-Day Weather Forecast

Advertisements
Track Severe Weather on mobile